sensor_id;sensor_type;location;lat;lon;timestamp;pressure;altitude;pressure_sealevel;temperature;humidity
34177;BME280;20450;49.074;9.158;2022-08-03T00:01:52;99561.28;;;21.13;nan
34177;BME280;20450;49.074;9.158;2022-08-03T00:04:23;99562.19;;;21.05;77.91
34177;BME280;20450;49.074;9.158;2022-08-03T00:07:06;99560.72;;;21.03;78.54
34177;BME280;20450;49.074;9.158;2022-08-03T00:09:34;99557.34;;;21.09;77.29
34177;BME280;20450;49.074;9.158;2022-08-03T00:12:14;99556.16;;;21.11;77.66
34177;BME280;20450;49.074;9.158;2022-08-03T00:14:42;99561.63;;;21.10;78.80
34177;BME280;20450;49.074;9.158;2022-08-03T00:17:17;99557.41;;;21.01;77.02
34177;BME280;20450;49.074;9.158;2022-08-03T00:19:48;99565.53;;;20.99;77.68
34177;BME280;20450;49.074;9.158;2022-08-03T00:22:19;99560.03;;;21.01;76.84
34177;BME280;20450;49.074;9.158;2022-08-03T00:24:54;99557.41;;;21.01;78.18
34177;BME280;20450;49.074;9.158;2022-08-03T00:27:31;99551.13;;;21.02;77.50
34177;BME280;20450;49.074;9.158;2022-08-03T00:30:06;99553.84;;;21.08;78.09
34177;BME280;20450;49.074;9.158;2022-08-03T00:32:35;99547.38;;;21.11;77.31
34177;BME280;20450;49.074;9.158;2022-08-03T00:35:11;99542.06;;;21.11;77.63
34177;BME280;20450;49.074;9.158;2022-08-03T00:38:03;99545.63;;;21.18;76.44
34177;BME280;20450;49.074;9.158;2022-08-03T00:40:34;99550.88;;;21.26;76.41
34177;BME280;20450;49.074;9.158;2022-08-03T00:43:07;99551.78;;;21.33;75.57
34177;BME280;20450;49.074;9.158;2022-08-03T00:45:38;99548.22;;;21.40;76.13
34177;BME280;20450;49.074;9.158;2022-08-03T00:48:14;99538.97;;;21.36;76.50
34177;BME280;20450;49.074;9.158;2022-08-03T00:51:01;99546.03;;;21.29;76.60
34177;BME280;20450;49.074;9.158;2022-08-03T00:53:34;99548.22;;;21.26;77.81
34177;BME280;20450;49.074;9.158;2022-08-03T00:56:12;99552.84;;;21.24;77.33
34177;BME280;20450;49.074;9.158;2022-08-03T00:58:42;99548.66;;;21.15;74.45
34177;BME280;20450;49.074;9.158;2022-08-03T01:01:16;99544.44;;;21.20;73.37
34177;BME280;20450;49.074;9.158;2022-08-03T01:03:44;99550.31;;;21.16;70.31
34177;BME280;20450;49.074;9.158;2022-08-03T01:06:22;99549.44;;;21.01;71.15
34177;BME280;20450;49.074;9.158;2022-08-03T01:09:05;99549.09;;;21.04;69.89
34177;BME280;20450;49.074;9.158;2022-08-03T01:11:53;99538.13;;;21.07;69.93
34177;BME280;20450;49.074;9.158;2022-08-03T01:14:37;99551.94;;;21.17;69.80
34177;BME280;20450;49.074;9.158;2022-08-03T01:17:16;99546.00;;;21.15;69.31
34177;BME280;20450;49.074;9.158;2022-08-03T01:19:57;99542.19;;;21.17;69.41
34177;BME280;20450;49.074;9.158;2022-08-03T01:26:15;99538.97;;;21.22;75.33
34177;BME280;20450;49.074;9.158;2022-08-03T01:29:01;99545.09;;;21.08;76.16
34177;BME280;20450;49.074;9.158;2022-08-03T01:31:40;99534.09;;;20.96;76.39
34177;BME280;20450;49.074;9.158;2022-08-03T01:34:42;99529.03;;;20.87;77.66
34177;BME280;20450;49.074;9.158;2022-08-03T01:37:25;99520.00;;;20.59;79.49
34177;BME280;20450;49.074;9.158;2022-08-03T01:40:12;99524.63;;;20.42;80.17
34177;BME280;20450;49.074;9.158;2022-08-03T01:42:45;99519.50;;;20.41;80.61
34177;BME280;20450;49.074;9.158;2022-08-03T01:45:19;99521.44;;;20.47;80.55
34177;BME280;20450;49.074;9.158;2022-08-03T01:47:51;99514.81;;;20.51;79.97
34177;BME280;20450;49.074;9.158;2022-08-03T01:50:34;99503.75;;;20.47;79.59
34177;BME280;20450;49.074;9.158;2022-08-03T01:53:09;99518.53;;;20.56;79.73
34177;BME280;20450;49.074;9.158;2022-08-03T01:55:48;99517.66;;;20.64;80.19
34177;BME280;20450;49.074;9.158;2022-08-03T01:58:29;99520.06;;;20.73;78.88
34177;BME280;20450;49.074;9.158;2022-08-03T02:01:07;99512.94;;;20.74;76.20
34177;BME280;20450;49.074;9.158;2022-08-03T02:03:40;99517.22;;;20.75;76.04
34177;BME280;20450;49.074;9.158;2022-08-03T02:06:29;99526.19;;;20.74;74.54
34177;BME280;20450;49.074;9.158;2022-08-03T02:09:24;99514.94;;;20.72;74.30
34177;BME280;20450;49.074;9.158;2022-08-03T02:11:56;99521.06;;;20.72;75.44
34177;BME280;20450;49.074;9.158;2022-08-03T02:14:29;99516.94;;;20.70;73.55
34177;BME280;20450;49.074;9.158;2022-08-03T02:16:59;99517.66;;;20.64;73.21
34177;BME280;20450;49.074;9.158;2022-08-03T02:19:31;99519.41;;;20.71;72.52
34177;BME280;20450;49.074;9.158;2022-08-03T02:22:12;99522.69;;;20.73;73.10
34177;BME280;20450;49.074;9.158;2022-08-03T02:24:48;99525.97;;;20.75;72.40
34177;BME280;20450;49.074;9.158;2022-08-03T02:27:19;99520.59;;;20.69;73.37
34177;BME280;20450;49.074;9.158;2022-08-03T02:30:07;99509.91;;;20.40;76.33
34177;BME280;20450;49.074;9.158;2022-08-03T02:32:39;99510.03;;;20.24;78.27
34177;BME280;20450;49.074;9.158;2022-08-03T02:35:22;99515.09;;;20.11;78.63
34177;BME280;20450;49.074;9.158;2022-08-03T02:38:01;99515.56;;;20.14;79.74
34177;BME280;20450;49.074;9.158;2022-08-03T02:40:33;99515.44;;;20.08;77.49
34177;BME280;20450;49.074;9.158;2022-08-03T02:43:11;99513.63;;;20.00;77.13
34177;BME280;20450;49.074;9.158;2022-08-03T02:45:48;99510.81;;;20.02;76.52
34177;BME280;20450;49.074;9.158;2022-08-03T02:48:32;99506.34;;;20.02;75.75
34177;BME280;20450;49.074;9.158;2022-08-03T02:51:04;99506.50;;;20.09;75.65
34177;BME280;20450;49.074;9.158;2022-08-03T02:53:40;99507.34;;;20.09;75.32
34177;BME280;20450;49.074;9.158;2022-08-03T02:56:14;99510.44;;;20.13;74.96
34177;BME280;20450;49.074;9.158;2022-08-03T02:58:53;99513.72;;;20.15;74.45
34177;BME280;20450;49.074;9.158;2022-08-03T03:01:25;99517.34;;;20.22;75.36
34177;BME280;20450;49.074;9.158;2022-08-03T03:03:59;99517.59;;;20.27;75.96
34177;BME280;20450;49.074;9.158;2022-08-03T03:06:33;99508.50;;;20.29;75.43
34177;BME280;20450;49.074;9.158;2022-08-03T03:09:07;99511.81;;;20.31;76.44
34177;BME280;20450;49.074;9.158;2022-08-03T03:11:41;99514.25;;;20.33;77.58
34177;BME280;20450;49.074;9.158;2022-08-03T03:14:14;99504.16;;;20.36;77.51
34177;BME280;20450;49.074;9.158;2022-08-03T03:17:01;99512.63;;;20.32;74.79
34177;BME280;20450;49.074;9.158;2022-08-03T03:19:40;99510.63;;;20.11;73.60
34177;BME280;20450;49.074;9.158;2022-08-03T03:22:14;99514.63;;;19.99;73.91
34177;BME280;20450;49.074;9.158;2022-08-03T03:24:45;99511.81;;;20.01;74.23
34177;BME280;20450;49.074;9.158;2022-08-03T03:27:15;99512.13;;;20.06;74.88
34177;BME280;20450;49.074;9.158;2022-08-03T03:29:44;99508.13;;;20.10;76.42
34177;BME280;20450;49.074;9.158;2022-08-03T03:32:16;99508.34;;;20.08;78.03
34177;BME280;20450;49.074;9.158;2022-08-03T03:34:48;99499.72;;;20.06;79.07
34177;BME280;20450;49.074;9.158;2022-08-03T03:37:21;99500.41;;;20.08;78.93
34177;BME280;20450;49.074;9.158;2022-08-03T03:39:51;99506.78;;;20.14;79.22
34177;BME280;20450;49.074;9.158;2022-08-03T03:42:39;99508.72;;;20.20;78.85
34177;BME280;20450;49.074;9.158;2022-08-03T03:45:13;99513.03;;;20.21;76.81
34177;BME280;20450;49.074;9.158;2022-08-03T03:47:57;99502.63;;;20.19;75.88
34177;BME280;20450;49.074;9.158;2022-08-03T03:50:37;99514.31;;;20.25;75.92
34177;BME280;20450;49.074;9.158;2022-08-03T03:53:10;99509.88;;;20.25;75.75
34177;BME280;20450;49.074;9.158;2022-08-03T03:55:45;99512.16;;;20.28;75.15
34177;BME280;20450;49.074;9.158;2022-08-03T03:58:30;99514.25;;;20.33;75.29
34177;BME280;20450;49.074;9.158;2022-08-03T04:00:59;99517.41;;;20.36;77.23
34177;BME280;20450;49.074;9.158;2022-08-03T04:03:32;99515.22;;;20.40;77.77
34177;BME280;20450;49.074;9.158;2022-08-03T04:06:03;99516.56;;;20.36;78.98
34177;BME280;20450;49.074;9.158;2022-08-03T04:08:37;99508.03;;;20.26;79.15
34177;BME280;20450;49.074;9.158;2022-08-03T04:11:37;99511.34;;;20.28;78.64
34177;BME280;20450;49.074;9.158;2022-08-03T04:14:19;99509.66;;;20.27;75.83
34177;BME280;20450;49.074;9.158;2022-08-03T04:17:01;99510.81;;;19.71;77.90
34177;BME280;20450;49.074;9.158;2022-08-03T04:19:59;99509.72;;;19.66;79.24
34177;BME280;20450;49.074;9.158;2022-08-03T04:23:02;99510.50;;;19.97;78.80
34177;BME280;20450;49.074;9.158;2022-08-03T04:25:55;99516.56;;;20.13;79.72
34177;BME280;20450;49.074;9.158;2022-08-03T04:28:43;99519.19;;;20.58;78.78
34177;BME280;20450;49.074;9.158;2022-08-03T04:31:15;99523.50;;;20.96;75.72
34177;BME280;20450;49.074;9.158;2022-08-03T04:33:56;99527.81;;;21.41;73.23
34177;BME280;20450;49.074;9.158;2022-08-03T04:36:36;99532.38;;;21.90;71.15
34177;BME280;20450;49.074;9.158;2022-08-03T04:39:18;99522.31;;;22.42;69.93
34177;BME280;20450;49.074;9.158;2022-08-03T04:42:00;99526.28;;;22.74;67.50
34177;BME280;20450;49.074;9.158;2022-08-03T04:44:44;99533.16;;;22.89;66.94
34177;BME280;20450;49.074;9.158;2022-08-03T04:47:30;99529.63;;;23.10;64.53
34177;BME280;20450;49.074;9.158;2022-08-03T05:03:19;99548.53;;;24.95;56.19
34177;BME280;20450;49.074;9.158;2022-08-03T05:06:16;99549.97;;;25.17;55.54
34177;BME280;20450;49.074;9.158;2022-08-03T05:08:52;99546.09;;;25.89;53.83
34177;BME280;20450;49.074;9.158;2022-08-03T05:11:33;99538.19;;;26.45;52.76
34177;BME280;20450;49.074;9.158;2022-08-03T05:14:11;99548.78;;;27.13;51.16
34177;BME280;20450;49.074;9.158;2022-08-03T05:16:53;99544.31;;;27.68;50.89
34177;BME280;20450;49.074;9.158;2022-08-03T05:19:29;99546.94;;;28.22;49.86
34177;BME280;20450;49.074;9.158;2022-08-03T05:22:04;99555.19;;;28.79;48.09
34177;BME280;20450;49.074;9.158;2022-08-03T05:24:38;99555.06;;;28.86;48.56
34177;BME280;20450;49.074;9.158;2022-08-03T05:27:12;99555.00;;;29.04;48.42
34177;BME280;20450;49.074;9.158;2022-08-03T05:30:11;99562.00;;;29.16;46.58
34177;BME280;20450;49.074;9.158;2022-08-03T05:33:08;99558.25;;;29.40;45.17
34177;BME280;20450;49.074;9.158;2022-08-03T05:35:43;99562.78;;;29.86;44.61
34177;BME280;20450;49.074;9.158;2022-08-03T05:38:33;99552.69;;;29.93;43.77
34177;BME280;20450;49.074;9.158;2022-08-03T05:41:15;99552.53;;;29.14;45.94
34177;BME280;20450;49.074;9.158;2022-08-03T05:44:06;99563.28;;;29.37;44.97
34177;BME280;20450;49.074;9.158;2022-08-03T05:47:06;99562.44;;;29.48;44.39
34177;BME280;20450;49.074;9.158;2022-08-03T05:51:23;99555.88;;;31.07;41.18
34177;BME280;20450;49.074;9.158;2022-08-03T05:54:15;99567.31;;;31.30;40.75
34177;BME280;20450;49.074;9.158;2022-08-03T05:57:24;99563.78;;;30.36;42.25
34177;BME280;20450;49.074;9.158;2022-08-03T05:59:58;99555.63;;;30.75;42.10
34177;BME280;20450;49.074;9.158;2022-08-03T06:02:51;99564.53;;;31.25;40.49
34177;BME280;20450;49.074;9.158;2022-08-03T06:05:33;99564.53;;;30.76;42.13
34177;BME280;20450;49.074;9.158;2022-08-03T06:08:51;99551.72;;;30.38;42.27
34177;BME280;20450;49.074;9.158;2022-08-03T06:11:22;99564.44;;;30.71;42.46
34177;BME280;20450;49.074;9.158;2022-08-03T06:13:55;99560.69;;;31.05;41.29
34177;BME280;20450;49.074;9.158;2022-08-03T06:20:19;99558.84;;;31.60;40.44
34177;BME280;20450;49.074;9.158;2022-08-03T06:23:42;99566.56;;;32.64;38.55
34177;BME280;20450;49.074;9.158;2022-08-03T06:26:26;99567.47;;;33.42;37.02
34177;BME280;20450;49.074;9.158;2022-08-03T06:28:56;99575.03;;;33.87;35.60
34177;BME280;20450;49.074;9.158;2022-08-03T06:31:26;99577.66;;;34.33;34.67
34177;BME280;20450;49.074;9.158;2022-08-03T06:34:01;99570.97;;;35.11;33.52
34177;BME280;20450;49.074;9.158;2022-08-03T06:36:49;99574.22;;;34.73;34.22
34177;BME280;20450;49.074;9.158;2022-08-03T06:39:22;99574.97;;;33.77;36.25
34177;BME280;20450;49.074;9.158;2022-08-03T06:42:00;99567.44;;;33.79;36.67
34177;BME280;20450;49.074;9.158;2022-08-03T06:44:32;99569.06;;;33.33;36.64
34177;BME280;20450;49.074;9.158;2022-08-03T06:46:59;99574.81;;;33.10;37.51
34177;BME280;20450;49.074;9.158;2022-08-03T06:49:26;99565.72;;;34.24;35.64
34177;BME280;20450;49.074;9.158;2022-08-03T06:51:54;99568.28;;;34.96;34.72
34177;BME280;20450;49.074;9.158;2022-08-03T06:54:32;99569.28;;;35.65;33.63
34177;BME280;20450;49.074;9.158;2022-08-03T06:57:03;99562.69;;;35.86;33.06
34177;BME280;20450;49.074;9.158;2022-08-03T06:59:31;99572.28;;;36.32;32.06
34177;BME280;20450;49.074;9.158;2022-08-03T07:02:41;99584.97;;;37.47;30.37
34177;BME280;20450;49.074;9.158;2022-08-03T07:05:43;99569.66;;;37.51;29.97
34177;BME280;20450;49.074;9.158;2022-08-03T07:08:10;99575.50;;;36.77;31.87
34177;BME280;20450;49.074;9.158;2022-08-03T07:10:38;99561.19;;;36.72;30.61
34177;BME280;20450;49.074;9.158;2022-08-03T07:13:07;99580.38;;;37.71;30.32
34177;BME280;20450;49.074;9.158;2022-08-03T07:15:34;99583.44;;;37.88;29.34
34177;BME280;20450;49.074;9.158;2022-08-03T07:18:21;99572.91;;;37.29;30.66
34177;BME280;20450;49.074;9.158;2022-08-03T07:20:55;99559.91;;;36.54;31.35
34177;BME280;20450;49.074;9.158;2022-08-03T07:23:22;99561.16;;;35.75;33.36
34177;BME280;20450;49.074;9.158;2022-08-03T07:25:50;99550.94;;;35.02;33.59
34177;BME280;20450;49.074;9.158;2022-08-03T07:28:19;99562.59;;;34.82;34.10
34177;BME280;20450;49.074;9.158;2022-08-03T07:30:46;99554.06;;;35.74;33.49
34177;BME280;20450;49.074;9.158;2022-08-03T07:33:20;99560.88;;;36.73;33.02
34177;BME280;20450;49.074;9.158;2022-08-03T07:35:56;99551.94;;;35.56;33.60
34177;BME280;20450;49.074;9.158;2022-08-03T07:38:23;99558.13;;;35.81;33.68
34177;BME280;20450;49.074;9.158;2022-08-03T07:40:50;99561.03;;;36.00;33.97
34177;BME280;20450;49.074;9.158;2022-08-03T07:43:19;99560.66;;;35.38;33.55
34177;BME280;20450;49.074;9.158;2022-08-03T07:45:46;99555.28;;;34.93;34.29
34177;BME280;20450;49.074;9.158;2022-08-03T07:48:13;99555.25;;;34.78;33.97
34177;BME280;20450;49.074;9.158;2022-08-03T07:50:40;99553.75;;;34.05;36.28
34177;BME280;20450;49.074;9.158;2022-08-03T07:53:07;99549.84;;;34.78;34.58
34177;BME280;20450;49.074;9.158;2022-08-03T07:55:37;99552.00;;;34.56;35.61
34177;BME280;20450;49.074;9.158;2022-08-03T07:58:07;99541.94;;;34.26;35.57
34177;BME280;20450;49.074;9.158;2022-08-03T08:00:40;99538.81;;;33.88;37.44
34177;BME280;20450;49.074;9.158;2022-08-03T08:03:07;99538.78;;;33.31;36.90
34177;BME280;20450;49.074;9.158;2022-08-03T08:05:39;99545.19;;;32.89;38.85
34177;BME280;20450;49.074;9.158;2022-08-03T08:08:06;99541.56;;;32.47;39.95
34177;BME280;20450;49.074;9.158;2022-08-03T08:10:34;99532.19;;;32.54;38.87
34177;BME280;20450;49.074;9.158;2022-08-03T08:13:02;99533.19;;;32.75;38.55
34177;BME280;20450;49.074;9.158;2022-08-03T08:15:34;99542.38;;;33.05;38.24
34177;BME280;20450;49.074;9.158;2022-08-03T08:18:10;99541.31;;;33.53;37.59
34177;BME280;20450;49.074;9.158;2022-08-03T08:20:36;99545.28;;;33.82;37.25
34177;BME280;20450;49.074;9.158;2022-08-03T08:23:05;99545.09;;;34.18;36.38
34177;BME280;20450;49.074;9.158;2022-08-03T08:25:55;99539.44;;;34.25;36.00
34177;BME280;20450;49.074;9.158;2022-08-03T08:28:22;99545.34;;;34.02;36.57
34177;BME280;20450;49.074;9.158;2022-08-03T08:30:58;99538.09;;;33.56;37.09
34177;BME280;20450;49.074;9.158;2022-08-03T08:33:28;99540.03;;;33.65;37.17
34177;BME280;20450;49.074;9.158;2022-08-03T08:36:15;99537.63;;;33.74;37.14
34177;BME280;20450;49.074;9.158;2022-08-03T08:38:42;99535.28;;;33.36;38.65
34177;BME280;20450;49.074;9.158;2022-08-03T08:41:24;99529.13;;;33.04;38.32
34177;BME280;20450;49.074;9.158;2022-08-03T08:44:00;99528.75;;;32.32;39.56
34177;BME280;20450;49.074;9.158;2022-08-03T08:46:31;99515.59;;;31.71;41.54
34177;BME280;20450;49.074;9.158;2022-08-03T08:49:01;99524.03;;;32.23;40.77
34177;BME280;20450;49.074;9.158;2022-08-03T08:51:38;99528.53;;;32.39;40.14
34177;BME280;20450;49.074;9.158;2022-08-03T08:59:14;99518.38;;;32.46;39.21
34177;BME280;20450;49.074;9.158;2022-08-03T09:01:55;99520.22;;;33.08;38.43
34177;BME280;20450;49.074;9.158;2022-08-03T09:04:24;99528.25;;;33.35;37.17
34177;BME280;20450;49.074;9.158;2022-08-03T09:06:52;99523.13;;;33.38;37.25
34177;BME280;20450;49.074;9.158;2022-08-03T09:09:39;99507.88;;;32.81;38.98
34177;BME280;20450;49.074;9.158;2022-08-03T09:12:26;99517.38;;;33.25;37.81
34177;BME280;20450;49.074;9.158;2022-08-03T09:15:17;99514.75;;;33.35;36.40
34177;BME280;20450;49.074;9.158;2022-08-03T09:17:45;99511.25;;;32.35;36.23
34177;BME280;20450;49.074;9.158;2022-08-03T09:20:19;99512.53;;;32.06;37.21
34177;BME280;20450;49.074;9.158;2022-08-03T09:22:53;99512.38;;;32.17;35.96
34177;BME280;20450;49.074;9.158;2022-08-03T09:25:27;99516.47;;;31.34;36.92
34177;BME280;20450;49.074;9.158;2022-08-03T09:28:03;99510.38;;;31.81;36.88
34177;BME280;20450;49.074;9.158;2022-08-03T09:30:33;99505.56;;;30.91;39.21
34177;BME280;20450;49.074;9.158;2022-08-03T09:33:02;99501.38;;;31.54;38.74
34177;BME280;20450;49.074;9.158;2022-08-03T09:35:31;99501.47;;;32.29;37.63
34177;BME280;20450;49.074;9.158;2022-08-03T09:38:20;99508.66;;;32.76;35.24
34177;BME280;20450;49.074;9.158;2022-08-03T09:40:48;99507.81;;;32.76;35.58
34177;BME280;20450;49.074;9.158;2022-08-03T09:43:20;99491.25;;;32.94;35.88
34177;BME280;20450;49.074;9.158;2022-08-03T09:45:47;99498.00;;;32.33;36.13
34177;BME280;20450;49.074;9.158;2022-08-03T09:48:23;99489.06;;;32.28;36.79
34177;BME280;20450;49.074;9.158;2022-08-03T09:50:55;99493.00;;;32.47;36.67
34177;BME280;20450;49.074;9.158;2022-08-03T09:53:44;99503.88;;;32.57;36.27
34177;BME280;20450;49.074;9.158;2022-08-03T09:56:37;99495.81;;;32.88;35.26
34177;BME280;20450;49.074;9.158;2022-08-03T09:59:06;99498.91;;;32.44;34.08
34177;BME280;20450;49.074;9.158;2022-08-03T10:01:34;99487.69;;;32.57;34.36
34177;BME280;20450;49.074;9.158;2022-08-03T10:04:02;99492.47;;;32.50;34.27
34177;BME280;20450;49.074;9.158;2022-08-03T10:06:32;99498.78;;;32.92;33.97
34177;BME280;20450;49.074;9.158;2022-08-03T10:09:07;99492.19;;;33.66;32.50
34177;BME280;20450;49.074;9.158;2022-08-03T10:11:36;99497.56;;;34.32;31.96
34177;BME280;20450;49.074;9.158;2022-08-03T10:14:09;99490.66;;;33.80;32.16
34177;BME280;20450;49.074;9.158;2022-08-03T10:16:38;99476.75;;;34.73;31.40
34177;BME280;20450;49.074;9.158;2022-08-03T10:19:07;99482.31;;;35.46;30.49
34177;BME280;20450;49.074;9.158;2022-08-03T10:21:37;99480.53;;;34.97;31.63
34177;BME280;20450;49.074;9.158;2022-08-03T10:24:08;99472.41;;;34.77;31.63
34177;BME280;20450;49.074;9.158;2022-08-03T10:26:38;99473.50;;;34.51;31.73
34177;BME280;20450;49.074;9.158;2022-08-03T10:29:20;99467.56;;;34.79;32.47
34177;BME280;20450;49.074;9.158;2022-08-03T10:31:53;99471.88;;;34.90;31.16
34177;BME280;20450;49.074;9.158;2022-08-03T10:34:26;99472.88;;;35.19;31.57
34177;BME280;20450;49.074;9.158;2022-08-03T10:37:08;99464.31;;;35.75;30.05
34177;BME280;20450;49.074;9.158;2022-08-03T10:39:38;99462.84;;;35.98;30.61
34177;BME280;20450;49.074;9.158;2022-08-03T10:42:13;99453.97;;;34.74;31.27
34177;BME280;20450;49.074;9.158;2022-08-03T10:44:41;99456.53;;;33.74;33.39
34177;BME280;20450;49.074;9.158;2022-08-03T10:47:09;99452.09;;;34.94;31.40
34177;BME280;20450;49.074;9.158;2022-08-03T10:49:37;99456.50;;;36.12;30.56
34177;BME280;20450;49.074;9.158;2022-08-03T10:52:06;99450.66;;;36.34;29.86
34177;BME280;20450;49.074;9.158;2022-08-03T10:54:53;99458.38;;;37.07;29.75
34177;BME280;20450;49.074;9.158;2022-08-03T10:57:45;99453.09;;;37.86;28.84
34177;BME280;20450;49.074;9.158;2022-08-03T11:00:16;99459.06;;;38.25;28.66
34177;BME280;20450;49.074;9.158;2022-08-03T11:03:08;99455.31;;;38.21;27.93
34177;BME280;20450;49.074;9.158;2022-08-03T11:05:38;99451.47;;;37.67;28.51
34177;BME280;20450;49.074;9.158;2022-08-03T11:08:24;99447.50;;;36.22;29.32
34177;BME280;20450;49.074;9.158;2022-08-03T11:10:58;99450.22;;;37.36;28.72
34177;BME280;20450;49.074;9.158;2022-08-03T11:13:29;99451.88;;;38.34;28.56
34177;BME280;20450;49.074;9.158;2022-08-03T11:15:59;99446.94;;;39.41;26.64
34177;BME280;20450;49.074;9.158;2022-08-03T11:18:34;99445.84;;;40.04;25.99
34177;BME280;20450;49.074;9.158;2022-08-03T11:21:02;99435.72;;;39.02;25.87
34177;BME280;20450;49.074;9.158;2022-08-03T11:23:43;99435.81;;;37.35;28.85
34177;BME280;20450;49.074;9.158;2022-08-03T11:26:31;99439.63;;;37.76;27.86
34177;BME280;20450;49.074;9.158;2022-08-03T11:29:26;99424.78;;;38.43;27.81
34177;BME280;20450;49.074;9.158;2022-08-03T11:31:55;99425.56;;;38.75;25.80
34177;BME280;20450;49.074;9.158;2022-08-03T11:34:24;99432.28;;;37.35;27.47
34177;BME280;20450;49.074;9.158;2022-08-03T11:37:22;99434.19;;;37.95;26.55
34177;BME280;20450;49.074;9.158;2022-08-03T11:40:00;99422.88;;;36.42;27.83
34177;BME280;20450;49.074;9.158;2022-08-03T11:42:39;99431.25;;;37.31;27.91
34177;BME280;20450;49.074;9.158;2022-08-03T11:45:08;99427.31;;;38.21;27.02
34177;BME280;20450;49.074;9.158;2022-08-03T11:47:40;99422.47;;;39.09;26.08
34177;BME280;20450;49.074;9.158;2022-08-03T11:50:17;99415.72;;;39.60;25.19
34177;BME280;20450;49.074;9.158;2022-08-03T11:52:48;99416.41;;;40.37;24.61
34177;BME280;20450;49.074;9.158;2022-08-03T11:55:18;99414.94;;;37.31;27.44
34177;BME280;20450;49.074;9.158;2022-08-03T11:57:47;99414.97;;;37.49;27.19
34177;BME280;20450;49.074;9.158;2022-08-03T12:00:36;99403.03;;;37.27;28.66
34177;BME280;20450;49.074;9.158;2022-08-03T12:03:05;99404.94;;;36.46;27.49
34177;BME280;20450;49.074;9.158;2022-08-03T12:05:40;99391.78;;;36.29;29.55
34177;BME280;20450;49.074;9.158;2022-08-03T12:08:29;99388.38;;;35.65;28.91
34177;BME280;20450;49.074;9.158;2022-08-03T12:11:01;99392.66;;;35.18;30.88
34177;BME280;20450;49.074;9.158;2022-08-03T12:13:40;99391.56;;;35.29;31.62
34177;BME280;20450;49.074;9.158;2022-08-03T12:16:30;99379.03;;;34.14;30.79
34177;BME280;20450;49.074;9.158;2022-08-03T12:19:03;99386.31;;;33.89;31.58
34177;BME280;20450;49.074;9.158;2022-08-03T12:21:31;99375.78;;;33.97;31.92
34177;BME280;20450;49.074;9.158;2022-08-03T12:24:00;99377.16;;;34.50;32.08
34177;BME280;20450;49.074;9.158;2022-08-03T12:26:42;99382.22;;;34.86;32.17
34177;BME280;20450;49.074;9.158;2022-08-03T12:29:25;99376.50;;;34.98;29.97
34177;BME280;20450;49.074;9.158;2022-08-03T12:31:52;99380.34;;;33.87;31.32
34177;BME280;20450;49.074;9.158;2022-08-03T12:34:19;99388.84;;;33.39;31.60
34177;BME280;20450;49.074;9.158;2022-08-03T12:36:50;99377.09;;;33.08;33.34
34177;BME280;20450;49.074;9.158;2022-08-03T12:39:22;99369.63;;;32.74;33.27
34177;BME280;20450;49.074;9.158;2022-08-03T12:41:53;99374.44;;;32.72;33.73
34177;BME280;20450;49.074;9.158;2022-08-03T12:44:28;99373.34;;;32.73;33.86
34177;BME280;20450;49.074;9.158;2022-08-03T12:46:57;99372.41;;;32.89;32.95
34177;BME280;20450;49.074;9.158;2022-08-03T12:49:24;99369.28;;;33.12;33.88
34177;BME280;20450;49.074;9.158;2022-08-03T12:51:57;99367.31;;;32.97;33.24
34177;BME280;20450;49.074;9.158;2022-08-03T12:54:32;99374.03;;;32.90;33.27
34177;BME280;20450;49.074;9.158;2022-08-03T12:57:01;99368.06;;;32.83;33.16
34177;BME280;20450;49.074;9.158;2022-08-03T12:59:32;99364.16;;;32.64;33.61
34177;BME280;20450;49.074;9.158;2022-08-03T13:02:13;99350.75;;;32.79;34.59
34177;BME280;20450;49.074;9.158;2022-08-03T13:04:41;99357.53;;;32.86;34.25
34177;BME280;20450;49.074;9.158;2022-08-03T13:07:09;99360.09;;;32.61;34.22
34177;BME280;20450;49.074;9.158;2022-08-03T13:09:41;99356.34;;;32.67;33.74
34177;BME280;20450;49.074;9.158;2022-08-03T13:12:12;99351.06;;;32.87;32.37
34177;BME280;20450;49.074;9.158;2022-08-03T13:14:42;99349.22;;;32.93;31.79
34177;BME280;20450;49.074;9.158;2022-08-03T13:17:10;99358.94;;;32.94;32.18
34177;BME280;20450;49.074;9.158;2022-08-03T13:19:39;99358.31;;;32.77;32.63
34177;BME280;20450;49.074;9.158;2022-08-03T13:22:13;99356.88;;;32.69;32.43
34177;BME280;20450;49.074;9.158;2022-08-03T13:24:43;99351.59;;;32.84;31.97
34177;BME280;20450;49.074;9.158;2022-08-03T13:27:13;99350.81;;;32.89;32.21
34177;BME280;20450;49.074;9.158;2022-08-03T13:30:01;99348.47;;;33.07;31.44
34177;BME280;20450;49.074;9.158;2022-08-03T13:32:29;99345.78;;;33.12;31.56
34177;BME280;20450;49.074;9.158;2022-08-03T13:34:56;99345.78;;;33.12;32.20
34177;BME280;20450;49.074;9.158;2022-08-03T13:37:23;99338.78;;;33.21;31.48
34177;BME280;20450;49.074;9.158;2022-08-03T13:39:51;99343.47;;;33.41;33.79
34177;BME280;20450;49.074;9.158;2022-08-03T13:42:27;99328.34;;;33.45;31.91
34177;BME280;20450;49.074;9.158;2022-08-03T13:44:55;99331.59;;;33.57;33.34
34177;BME280;20450;49.074;9.158;2022-08-03T13:47:22;99318.34;;;33.55;31.74
34177;BME280;20450;49.074;9.158;2022-08-03T13:49:49;99325.16;;;33.73;31.80
34177;BME280;20450;49.074;9.158;2022-08-03T13:52:30;99330.59;;;33.83;32.61
34177;BME280;20450;49.074;9.158;2022-08-03T13:54:59;99323.00;;;33.80;31.19
34177;BME280;20450;49.074;9.158;2022-08-03T13:57:32;99321.91;;;33.61;31.35
34177;BME280;20450;49.074;9.158;2022-08-03T14:00:26;99305.41;;;33.72;32.22
34177;BME280;20450;49.074;9.158;2022-08-03T14:02:56;99321.94;;;33.91;31.86
34177;BME280;20450;49.074;9.158;2022-08-03T14:05:35;99317.91;;;34.08;33.03
34177;BME280;20450;49.074;9.158;2022-08-03T14:08:05;99313.28;;;34.14;31.42
34177;BME280;20450;49.074;9.158;2022-08-03T14:10:37;99312.22;;;33.95;30.75
34177;BME280;20450;49.074;9.158;2022-08-03T14:13:07;99312.22;;;33.85;32.72
34177;BME280;20450;49.074;9.158;2022-08-03T14:15:36;99306.19;;;33.58;31.56